Time;durP1;ratioP1;P1;durP2;ratioP2;P2;SDS_P1;SDS_P2;PMS_P1;PMS_P2;Temp;Humidity;BMP_temperature;BMP_pressure;BME280_temperature;BME280_humidity;BME280_pressure;Samples;Min_cycle;Max_cycle;Signal;HPM_P1;HPM_P2
2020/12/27 00:02:58;;;;;;;5.47;2.88;;;;;;;;;;6278445;23;20008;-89
2020/12/27 00:05:28;;;;;;;6.70;2.42;;;;;;;;;;6241812;23;20004;-87
2020/12/27 00:08:19;;;;;;;7.22;3.25;;;;;;;;;;6195749;23;20028;-88
2020/12/27 00:11:32;;;;;;;11.82;2.13;;;;;;;;;;6250260;23;20031;-88
2020/12/27 00:14:15;;;;;;;5.38;2.03;;;;;;;;;;6211189;23;20022;-87
2020/12/27 00:17:12;;;;;;;10.48;2.08;;;;;;;;;;6261687;23;20175;-88
2020/12/27 00:19:47;;;;;;;9.15;2.70;;;;;;;;;;6211883;23;20043;-89
2020/12/27 00:22:21;;;;;;;8.93;2.00;;;;;;;;;;6189517;23;20016;-91
2020/12/27 00:24:55;;;;;;;6.50;1.67;;;10.10;99.90;;;;;;6214213;23;20028;-89
2020/12/27 00:27:43;;;;;;;6.13;1.83;;;;;;;;;;6223114;23;20014;-85
2020/12/27 00:30:41;;;;;;;7.50;2.80;;;;;;;;;;6247558;23;20010;-90
2020/12/27 00:33:15;;;;;;;5.65;2.08;;;;;;;;;;6244528;23;20020;-89
2020/12/27 00:36:05;;;;;;;3.55;1.23;;;;;;;;;;6235860;23;20076;-89
2020/12/27 00:39:06;;;;;;;3.67;1.50;;;10.10;99.90;;;;;;6244301;23;20030;-89
2020/12/27 00:42:04;;;;;;;2.67;1.35;;;10.00;99.90;;;;;;6194570;23;20016;-90
2020/12/27 00:45:02;;;;;;;7.88;1.98;;;;;;;;;;6271093;22;20007;-89
2020/12/27 00:47:48;;;;;;;10.57;1.75;;;;;;;;;;6199888;23;20072;-89
2020/12/27 00:51:52;;;;;;;12.10;2.15;;;9.90;99.90;;;;;;6199631;23;20019;-91
2020/12/27 00:54:48;;;;;;;4.78;1.35;;;;;;;;;;6182428;23;20015;-90
2020/12/27 00:57:30;;;;;;;8.35;2.65;;;;;;;;;;6156839;23;20074;-89
2020/12/27 01:04:22;;;;;;;12.63;3.13;;;;;;;;;;6234221;23;20060;-88
2020/12/27 01:07:03;;;;;;;8.75;2.10;;;;;;;;;;6141275;23;20069;-89
2020/12/27 01:10:02;;;;;;;6.43;1.45;;;;;;;;;;6142721;23;20072;-89
2020/12/27 01:12:42;;;;;;;6.43;1.80;;;;;;;;;;6158447;23;20025;-89
2020/12/27 01:15:20;;;;;;;10.70;1.55;;;;;;;;;;6177632;23;20001;-88
2020/12/27 01:18:17;;;;;;;7.28;1.92;;;;;;;;;;6139813;23;20013;-89
2020/12/27 01:21:35;;;;;;;8.55;1.77;;;10.00;99.90;;;;;;6184976;22;20107;-89
2020/12/27 01:24:18;;;;;;;10.05;1.90;;;;;;;;;;6246738;22;20059;-91
2020/12/27 01:27:22;;;;;;;5.68;3.05;;;;;;;;;;6229108;22;20056;-90
2020/12/27 01:31:00;;;;;;;4.80;1.58;;;;;;;;;;6244679;22;20072;-91
2020/12/27 01:34:07;;;;;;;5.70;1.75;;;;;;;;;;6248557;22;20064;-89
2020/12/27 01:37:20;;;;;;;9.85;1.90;;;10.00;99.90;;;;;;6219665;22;20076;31
2020/12/27 01:40:20;;;;;;;5.38;1.75;;;9.80;99.90;;;;;;6214237;23;20068;-90
2020/12/27 01:43:10;;;;;;;8.30;2.47;;;;;;;;;;6213891;23;20024;-89
2020/12/27 01:46:19;;;;;;;7.80;2.25;;;9.90;99.90;;;;;;6148587;23;20021;-89
2020/12/27 01:48:57;;;;;;;8.98;1.92;;;;;;;;;;6118190;23;20022;-89
2020/12/27 01:51:40;;;;;;;6.00;1.80;;;;;;;;;;6102278;23;20001;-88
2020/12/27 01:54:24;;;;;;;8.95;2.63;;;;;;;;;;6171066;23;20052;-88
2020/12/27 01:57:16;;;;;;;2.78;1.98;;;9.80;99.90;;;;;;6168050;23;20021;-87
2020/12/27 02:00:04;;;;;;;11.23;2.78;;;;;;;;;;6173763;23;20006;-88
2020/12/27 02:02:47;;;;;;;5.53;2.55;;;9.60;99.90;;;;;;6154726;23;20021;-89
2020/12/27 02:05:26;;;;;;;;;;;9.70;99.90;;;;;;6148756;23;20013;-88
2020/12/27 02:07:58;;;;;;;4.60;1.63;;;;;;;;;;6168055;23;19927;-88
2020/12/27 02:10:57;;;;;;;9.05;3.08;;;;;;;;;;6151312;23;20027;-89
2020/12/27 02:13:31;;;;;;;12.18;2.40;;;;;;;;;;6142918;23;20017;-88
2020/12/27 02:16:06;;;;;;;6.63;2.22;;;;;;;;;;6117015;23;20020;-87
2020/12/27 02:19:06;;;;;;;5.03;2.30;;;9.70;99.90;;;;;;6125057;23;20025;-87
2020/12/27 02:21:37;;;;;;;5.32;1.50;;;;;;;;;;6118976;23;20021;-88
2020/12/27 02:24:08;;;;;;;9.45;2.80;;;;;;;;;;6118389;23;20028;-88
2020/12/27 02:27:04;;;;;;;9.70;3.60;;;;;;;;;;6120353;23;20032;-87
2020/12/27 02:29:37;;;;;;;14.20;2.47;;;;;;;;;;6138199;23;20021;-87
2020/12/27 02:32:08;;;;;;;9.52;2.58;;;;;;;;;;6115478;23;20022;-87
2020/12/27 02:34:43;;;;;;;8.30;2.25;;;;;;;;;;6117797;23;20023;-87
2020/12/27 02:37:14;;;;;;;9.05;3.50;;;;;;;;;;6211558;23;20028;-87
2020/12/27 02:39:56;;;;;;;6.18;2.22;;;;;;;;;;6208033;23;20016;-87
2020/12/27 02:42:32;;;;;;;4.25;2.00;;;;;;;;;;6227671;23;20012;-87
2020/12/27 02:45:12;;;;;;;5.00;3.10;;;;;;;;;;6232029;23;20016;-88
2020/12/27 02:48:14;;;;;;;6.72;2.00;;;;;;;;;;6201596;23;20020;-86
2020/12/27 02:50:50;;;;;;;7.72;2.75;;;;;;;;;;6227144;23;20016;-86
2020/12/27 02:53:22;;;;;;;2.13;1.20;;;;;;;;;;6199778;23;20016;-88
2020/12/27 02:55:54;;;;;;;6.80;2.63;;;;;;;;;;6220536;23;20016;-87
2020/12/27 02:58:23;;;;;;;13.57;3.05;;;;;;;;;;6176098;23;20020;-87
2020/12/27 03:00:52;;;;;;;4.38;2.03;;;;;;;;;;6261287;23;20016;-86
2020/12/27 03:03:25;;;;;;;5.97;1.55;;;;;;;;;;6232694;23;20024;-87
2020/12/27 03:06:00;;;;;;;17.25;3.65;;;;;;;;;;6226243;23;20022;-87
2020/12/27 03:08:32;;;;;;;9.98;3.17;;;;;;;;;;6226730;23;20027;-87
2020/12/27 03:11:28;;;;;;;6.82;2.72;;;;;;;;;;6251488;23;20438;-87
2020/12/27 03:13:58;;;;;;;3.42;2.08;;;;;;;;;;6176599;23;20024;-87
2020/12/27 03:16:25;;;;;;;13.65;2.83;;;;;;;;;;6250799;23;20071;-86
2020/12/27 03:19:12;;;;;;;9.80;2.05;;;;;;;;;;6203987;23;20183;-86
2020/12/27 03:22:02;;;;;;;11.32;1.83;;;;;;;;;;6249866;22;20026;-86
2020/12/27 03:24:49;;;;;;;14.90;2.63;;;;;;;;;;6253584;23;20026;-86
2020/12/27 03:27:19;;;;;;;10.57;1.92;;;;;;;;;;6225606;23;20024;-86
2020/12/27 03:29:51;;;;;;;5.20;2.25;;;;;;;;;;6232603;23;20026;-88
2020/12/27 03:32:26;;;;;;;8.80;2.13;;;;;;;;;;6206241;23;20020;-87
2020/12/27 03:34:57;;;;;;;4.40;2.50;;;;;;;;;;6201861;23;20020;-87
2020/12/27 03:37:27;;;;;;;10.68;4.10;;;;;;;;;;6193627;23;20024;-86
2020/12/27 03:40:17;;;;;;;3.30;2.60;;;;;;;;;;6198399;23;20021;-86
2020/12/27 03:42:59;;;;;;;17.00;3.13;;;;;;;;;;6196197;23;20020;-86
2020/12/27 03:45:28;;;;;;;6.07;2.90;;;;;;;;;;6146436;23;20035;-86
2020/12/27 03:48:16;;;;;;;7.47;2.60;;;;;;;;;;6149194;23;20090;-86
2020/12/27 03:51:03;;;;;;;4.90;1.90;;;;;;;;;;6184104;23;20023;-87
2020/12/27 03:53:34;;;;;;;9.43;2.55;;;;;;;;;;6193155;23;20021;-87
2020/12/27 03:56:18;;;;;;;11.93;3.63;;;;;;;;;;6148471;23;20027;-87
2020/12/27 03:59:02;;;;;;;7.65;3.67;;;;;;;;;;6197102;23;20043;-87
2020/12/27 04:01:40;;;;;;;14.93;3.05;;;;;;;;;;6203183;23;20045;-86
2020/12/27 04:04:08;;;;;;;6.47;2.80;;;;;;;;;;6172611;23;20012;-86
2020/12/27 04:06:36;;;;;;;13.23;2.30;;;;;;;;;;6193940;23;20016;-87
2020/12/27 04:09:27;;;;;;;10.70;2.67;;;;;;;;;;6167642;23;20028;-87
2020/12/27 04:11:57;;;;;;;9.63;2.58;;;;;;;;;;6193461;23;20020;-86
2020/12/27 04:14:25;;;;;;;26.27;5.18;;;;;;;;;;6146211;23;20031;-88
2020/12/27 04:16:53;;;;;;;9.50;2.97;;;;;;;;;;6169039;23;20020;-86
2020/12/27 04:19:23;;;;;;;15.68;3.95;;;;;;;;;;6194869;23;20361;-87
2020/12/27 04:22:05;;;;;;;7.82;3.20;;;;;;;;;;6219902;23;20016;-88
2020/12/27 04:24:48;;;;;;;8.10;2.67;;;;;;;;;;6224614;23;20023;-85
2020/12/27 04:27:18;;;;;;;15.40;2.65;;;;;;;;;;6199604;23;20020;-88
2020/12/27 04:29:48;;;;;;;7.80;2.60;;;;;;;;;;6169996;23;20018;-88
2020/12/27 04:32:26;;;;;;;13.57;4.85;;;;;;;;;;6145868;23;20506;-87
2020/12/27 04:35:04;;;;;;;12.15;3.47;;;;;;;;;;6193976;23;20019;-87
2020/12/27 04:37:37;;;;;;;5.47;2.45;;;;;;;;;;6194203;23;20024;-88
2020/12/27 04:40:13;;;;;;;11.95;2.92;;;;;;;;;;6218094;23;20017;-86
2020/12/27 04:42:50;;;;;;;10.02;2.58;;;9.20;99.90;;;;;;6172286;23;20020;-86
2020/12/27 04:45:35;;;;;;;12.25;4.43;;;;;;;;;;6195642;23;20017;-87
2020/12/27 04:48:16;;;;;;;20.35;4.13;;;;;;;;;;6170540;23;20021;-88
2020/12/27 04:51:12;;;;;;;11.00;3.28;;;;;;;;;;6200989;23;20332;-86
2020/12/27 04:53:44;;;;;;;8.35;2.22;;;;;;;;;;6197312;23;20016;-86
2020/12/27 04:56:26;;;;;;;7.32;2.20;;;;;;;;;;6196185;23;20017;-88
2020/12/27 04:59:14;;;;;;;6.70;1.88;;;;;;;;;;6170246;23;20016;-88
2020/12/27 05:01:51;;;;;;;8.40;2.50;;;;;;;;;;6181426;23;20019;-86
2020/12/27 05:04:34;;;;;;;9.23;2.25;;;;;;;;;;6229221;23;20235;-87
2020/12/27 05:07:22;;;;;;;6.55;1.92;;;;;;;;;;6221634;23;20478;-87
2020/12/27 05:10:17;;;;;;;8.65;2.50;;;;;;;;;;6207871;23;20021;-88
2020/12/27 05:12:54;;;;;;;9.43;2.72;;;9.40;99.90;;;;;;6169588;23;20020;-87
2020/12/27 05:15:27;;;;;;;8.65;2.83;;;;;;;;;;6194911;23;20026;-87
2020/12/27 05:17:58;;;;;;;4.47;2.63;;;;;;;;;;6146550;23;20020;-87
2020/12/27 05:20:30;;;;;;;;;;;9.30;99.90;;;;;;6232194;23;20038;-87
2020/12/27 05:23:01;;;;;;;11.65;2.30;;;9.30;99.90;;;;;;6198925;23;19926;-87
2020/12/27 05:26:04;;;;;;;4.75;2.30;;;9.30;99.90;;;;;;6183635;23;20054;-86
2020/12/27 05:28:46;;;;;;;9.82;3.33;;;;;;;;;;6173954;23;20023;-87
2020/12/27 05:31:45;;;;;;;3.90;2.25;;;;;;;;;;6184498;23;20023;-88
2020/12/27 05:34:45;;;;;;;8.02;3.78;;;;;;;;;;6219284;23;20016;-87
2020/12/27 05:37:42;;;;;;;9.43;3.55;;;;;;;;;;6210398;23;20020;-87
2020/12/27 05:40:43;;;;;;;7.53;2.92;;;;;;;;;;6169075;23;20017;-88
2020/12/27 05:43:38;;;;;;;12.75;5.13;;;9.20;99.90;;;;;;6230009;23;20012;-87
2020/12/27 05:46:11;;;;;;;12.15;2.67;;;;;;;;;;6200470;23;20478;-86
2020/12/27 05:48:39;;;;;;;14.25;3.33;;;;;;;;;;6246814;23;20030;-87
2020/12/27 05:51:14;;;;;;;23.20;3.60;;;9.30;99.90;;;;;;6222776;23;20020;-89
2020/12/27 05:53:49;;;;;;;5.22;2.85;;;9.10;99.90;;;;;;6196270;23;20016;-87
2020/12/27 05:56:21;;;;;;;5.38;2.13;;;9.10;99.90;;;;;;6197230;23;20075;-86
2020/12/27 05:59:03;;;;;;;9.10;2.72;;;9.10;99.90;;;;;;6198878;23;20032;-87
2020/12/27 06:01:37;;;;;;;7.60;2.30;;;9.10;99.90;;;;;;6200531;23;20102;-86
2020/12/27 06:04:34;;;;;;;12.25;4.35;;;;;;;;;;6236276;23;20028;-85
2020/12/27 06:07:02;;;;;;;6.25;1.92;;;;;;;;;;6249491;23;20024;-87
2020/12/27 06:09:37;;;;;;;10.80;3.33;;;;;;;;;;6174088;23;20030;-88
2020/12/27 06:12:13;;;;;;;9.27;2.42;;;8.90;99.90;;;;;;6199377;23;20016;-89
2020/12/27 06:15:07;;;;;;;5.80;2.15;;;8.90;99.90;;;;;;6230800;23;20046;-86
2020/12/27 06:18:27;;;;;;;3.58;2.38;;;8.80;99.90;;;;;;6227634;23;20482;-87
2020/12/27 06:21:18;;;;;;;13.63;2.85;;;;;;;;;;6222424;23;20026;-86
2020/12/27 06:23:59;;;;;;;9.00;2.63;;;;;;;;;;6223546;23;20488;-86
2020/12/27 06:26:30;;;;;;;8.02;3.35;;;;;;;;;;6246510;23;20462;-85
2020/12/27 06:29:22;;;;;;;6.93;2.80;;;;;;;;;;6199148;23;20020;-86
2020/12/27 06:31:57;;;;;;;7.63;2.47;;;;;;;;;;6200841;23;20015;-86
2020/12/27 06:34:38;;;;;;;4.63;1.58;;;;;;;;;;6226863;23;20020;-87
2020/12/27 06:37:15;;;;;;;3.05;1.50;;;8.30;99.90;;;;;;6226270;23;20333;-88
2020/12/27 06:40:03;;;;;;;3.03;1.52;;;;;;;;;;6223885;23;20016;-87
2020/12/27 06:43:19;;;;;;;8.27;1.33;;;7.80;99.90;;;;;;6223865;23;20020;-88
2020/12/27 06:46:28;;;;;;;3.08;1.20;;;7.80;99.90;;;;;;6200223;23;20016;-88
2020/12/27 06:49:16;;;;;;;1.60;1.40;;;;;;;;;;6197409;23;20027;-87
2020/12/27 06:52:19;;;;;;;4.40;1.25;;;;;;;;;;6222375;23;20020;-86
2020/12/27 06:55:05;;;;;;;5.72;1.58;;;;;;;;;;6223245;23;20024;-88
2020/12/27 06:57:58;;;;;;;4.15;2.45;;;;;;;;;;6225283;23;20024;-89
2020/12/27 07:00:36;;;;;;;1.58;1.20;;;;;;;;;;6223982;23;20019;-90
2020/12/27 07:03:22;;;;;;;1.58;1.20;;;7.60;99.90;;;;;;6234003;23;20021;-88
2020/12/27 07:05:50;;;;;;;;;;;7.40;99.90;;;;;;6229144;23;20035;-89
2020/12/27 07:08:41;;;;;;;2.35;1.38;;;7.60;99.90;;;;;;6226287;23;19916;-88
2020/12/27 07:11:15;;;;;;;1.42;1.30;;;7.50;99.90;;;;;;6239272;23;20016;-86
2020/12/27 07:13:45;;;;;;;2.03;1.33;;;7.50;99.90;;;;;;6225105;23;20024;-87
2020/12/27 07:16:16;;;;;;;3.33;1.33;;;7.50;99.90;;;;;;6222097;23;20352;-87
2020/12/27 07:18:50;;;;;;;;;;;7.70;99.90;;;;;;6222294;23;20431;-87
2020/12/27 07:21:20;;;;;;;1.20;1.20;;;;;;;;;;6222312;23;19919;-88
2020/12/27 07:24:11;;;;;;;0.80;0.80;;;7.30;99.90;;;;;;6222264;23;20034;-88
2020/12/27 07:26:43;;;;;;;1.27;1.17;;;7.40;99.90;;;;;;6212906;22;20707;-87
2020/12/27 07:29:17;;;;;;;2.72;0.90;;;7.40;99.90;;;;;;6199539;23;20027;-87
2020/12/27 07:31:46;;;;;;;1.25;1.15;;;;;;;;;;6201654;23;20016;-86
2020/12/27 07:34:29;;;;;;;2.58;1.00;;;;;;;;;;6199761;23;20013;-89
2020/12/27 07:37:01;;;;;;;1.00;1.00;;;7.30;99.90;;;;;;6225718;23;20023;-89
2020/12/27 07:39:48;;;;;;;1.58;1.48;;;;;;;;;;6198856;23;20030;-87
2020/12/27 07:42:35;;;;;;;1.10;0.98;;;7.30;99.90;;;;;;6221196;23;20477;-89
2020/12/27 07:45:04;;;;;;;1.58;1.15;;;;;;;;;;6245903;23;20020;-87
2020/12/27 07:47:38;;;;;;;3.05;1.52;;;7.40;99.90;;;;;;6198655;23;20016;-88
2020/12/27 07:50:10;;;;;;;0.90;0.90;;;;;;;;;;6197629;23;20020;-88
2020/12/27 07:52:58;;;;;;;1.25;1.13;;;7.40;99.90;;;;;;6248939;23;20016;-89
2020/12/27 07:55:26;;;;;;;1.08;1.08;;;;;;;;;;6218726;23;20020;-88
2020/12/27 07:57:55;;;;;;;1.20;1.13;;;;;;;;;;6220448;23;20016;-88
2020/12/27 08:00:26;;;;;;;2.65;1.25;;;7.30;99.90;;;;;;6220240;23;20020;-88
2020/12/27 08:02:54;;;;;;;6.03;1.60;;;7.30;99.90;;;;;;6258981;22;20103;-88
2020/12/27 08:05:24;;;;;;;1.33;1.23;;;;;;;;;;6211990;23;20020;-88
2020/12/27 08:07:55;;;;;;;2.00;1.30;;;;;;;;;;6225272;23;20174;-87
2020/12/27 08:10:25;;;;;;;;;;;7.40;99.90;;;;;;6198575;23;20016;-88
2020/12/27 08:12:57;;;;;;;0.95;0.95;;;7.30;99.90;;;;;;6224487;23;19916;-89
2020/12/27 08:15:28;;;;;;;1.52;1.42;;;7.40;99.90;;;;;;6201550;23;20020;-87
2020/12/27 08:17:57;;;;;;;2.70;1.15;;;;;;;;;;6200668;23;20030;-89
2020/12/27 08:20:27;;;;;;;1.10;1.10;;;;;;;;;;6202491;23;20013;-90
2020/12/27 08:23:09;;;;;;;2.03;1.90;;;;;;;;;;6203945;23;20020;-88
2020/12/27 08:25:42;;;;;;;4.28;1.35;;;;;;;;;;6226664;23;20030;-89
2020/12/27 08:28:12;;;;;;;2.88;2.35;;;7.40;99.90;;;;;;6225867;23;20027;-88
2020/12/27 08:30:40;;;;;;;1.42;1.33;;;;;;;;;;6201360;23;20016;-88
2020/12/27 08:33:11;;;;;;;1.45;1.25;;;;;;;;;;6201007;23;20027;-88
2020/12/27 08:35:56;;;;;;;6.32;1.50;;;;;;;;;;6251534;23;20016;-88
2020/12/27 08:38:47;;;;;;;2.30;1.10;;;7.40;99.90;;;;;;6185245;23;20021;-88
2020/12/27 08:41:20;;;;;;;4.68;1.55;;;;;;;;;;6222755;23;20020;-87
2020/12/27 08:44:09;;;;;;;1.30;1.20;;;;;;;;;;6219894;23;20016;-88
2020/12/27 08:46:40;;;;;;;10.70;1.73;;;7.40;99.90;;;;;;6197449;23;20031;-88
2020/12/27 08:49:40;;;;;;;5.88;1.83;;;7.20;99.90;;;;;;6221937;23;20021;-89
2020/12/27 08:52:19;;;;;;;2.45;2.13;;;;;;;;;;6177884;23;20021;-88
2020/12/27 08:55:05;;;;;;;4.68;2.35;;;7.20;99.90;;;;;;6183185;23;20023;-88
2020/12/27 08:57:36;;;;;;;1.73;1.63;;;;;;;;;;6182715;23;20021;-88
2020/12/27 09:00:09;;;;;;;2.80;1.92;;;;;;;;;;6207481;23;20458;-89
2020/12/27 09:02:38;;;;;;;1.85;1.55;;;;;;;;;;6175413;23;20072;-87
2020/12/27 09:05:10;;;;;;;1.75;1.23;;;7.40;99.90;;;;;;6235179;23;20031;-90
2020/12/27 09:07:45;;;;;;;3.13;1.67;;;7.40;99.90;;;;;;6224656;23;20027;-88
2020/12/27 09:10:22;;;;;;;1.20;1.20;;;;;;;;;;6199806;23;20020;-90
2020/12/27 09:13:03;;;;;;;1.50;1.00;;;;;;;;;;6173328;23;20016;-89
2020/12/27 09:15:37;;;;;;;11.45;1.98;;;;;;;;;;6198440;23;20020;-88
2020/12/27 09:18:09;;;;;;;8.20;1.50;;;6.70;99.90;;;;;;6176217;23;20440;-88
2020/12/27 09:20:46;;;;;;;4.65;1.40;;;6.30;99.90;;;;;;6199518;23;20423;-88
2020/12/27 09:23:38;;;;;;;3.75;1.75;;;;;;;;;;6201024;23;20020;-89
2020/12/27 09:26:19;;;;;;;1.35;1.25;;;6.20;99.90;;;;;;6175914;23;20017;-88
2020/12/27 09:29:17;;;;;;;4.30;1.83;;;6.30;99.90;;;;;;6176889;23;20020;-88
2020/12/27 09:31:54;;;;;;;1.83;1.70;;;;;;;;;;6175099;23;20013;-87
2020/12/27 09:34:25;;;;;;;4.22;1.58;;;;;;;;;;6154244;23;20023;-89
2020/12/27 09:37:17;;;;;;;1.73;1.63;;;6.10;99.90;;;;;;6202176;23;20020;-89
2020/12/27 09:40:15;;;;;;;10.40;1.90;;;;;;;;;;6179872;23;20452;-89
2020/12/27 09:42:48;;;;;;;1.58;1.23;;;;;;;;;;6175137;23;20017;-88
2020/12/27 09:45:24;;;;;;;3.00;1.50;;;;;;;;;;6206100;23;20023;-88
2020/12/27 09:48:00;;;;;;;1.20;1.20;;;;;;;;;;6174903;23;20024;-88
2020/12/27 09:50:35;;;;;;;3.13;1.63;;;6.10;99.90;;;;;;6176593;23;20040;-88
2020/12/27 09:53:18;;;;;;;1.52;1.42;;;6.00;99.90;;;;;;6201315;23;20027;-87
2020/12/27 09:55:48;;;;;;;4.85;1.80;;;;;;;;;;6201457;23;20031;-89
2020/12/27 09:58:20;;;;;;;1.95;1.83;;;;;;;;;;6219397;23;20027;-87
2020/12/27 10:00:49;;;;;;;4.57;2.08;;;;;;;;;;6149126;23;20027;-87
2020/12/27 10:03:21;;;;;;;4.05;1.50;;;;;;;;;;6243543;22;20023;-87
2020/12/27 10:05:50;;;;;;;3.28;1.85;;;;;;;;;;6267133;22;20050;-87
2020/12/27 10:08:19;;;;;;;1.98;1.70;;;;;;;;;;6257640;22;20026;-88
2020/12/27 10:10:57;;;;;;;1.63;1.40;;;;;;;;;;6233636;22;20095;-87
2020/12/27 10:13:25;;;;;;;5.63;1.40;;;;;;;;;;6231689;22;20022;-88
2020/12/27 10:15:53;;;;;;;1.50;1.38;;;;;;;;;;6207821;22;20024;-89
2020/12/27 10:18:21;;;;;;;1.25;1.20;;;;;;;;;;6209426;22;20022;-90
2020/12/27 10:20:54;;;;;;;7.40;2.17;;;;;;;;;;6229353;22;20027;-89
2020/12/27 10:23:29;;;;;;;2.55;1.77;;;;;;;;;;6210545;22;20018;-88
2020/12/27 10:25:58;;;;;;;2.80;1.55;;;;;;;;;;6209062;22;20533;-87
2020/12/27 10:28:35;;;;;;;1.42;1.33;;;;;;;;;;6234980;22;20016;-91
2020/12/27 10:31:09;;;;;;;1.52;1.42;;;;;;;;;;6234385;22;20033;-90
2020/12/27 10:33:42;;;;;;;12.80;3.72;;;;;;;;;;6181796;23;20016;-90
2020/12/27 10:36:13;;;;;;;7.20;2.35;;;;;;;;;;6224806;23;20028;-89
2020/12/27 10:38:43;;;;;;;6.32;3.80;;;;;;;;;;6201822;23;20024;-88
2020/12/27 10:41:18;;;;;;;1.23;1.13;;;;;;;;;;6226025;23;20020;-89
2020/12/27 10:43:49;;;;;;;3.37;1.50;;;;;;;;;;6202961;23;20050;-90
2020/12/27 10:46:21;;;;;;;1.70;1.60;;;;;;;;;;6181352;23;20012;-90
2020/12/27 10:48:53;;;;;;;1.73;1.58;;;;;;;;;;6209977;23;20020;-89
2020/12/27 10:51:21;;;;;;;3.08;2.03;;;;;;;;;;6230304;23;20030;-87
2020/12/27 10:53:49;;;;;;;4.03;1.95;;;;;;;;;;6227870;23;20024;-88
2020/12/27 10:56:19;;;;;;;5.17;2.00;;;;;;;;;;6225807;23;20374;-89
2020/12/27 10:58:48;;;;;;;4.72;2.15;;;;;;;;;;6224216;23;20016;-88
2020/12/27 11:01:21;;;;;;;6.28;1.95;;;;;;;;;;6250887;23;20020;-88
2020/12/27 11:03:51;;;;;;;3.72;1.70;;;;;;;;;;6205619;23;20031;-87
2020/12/27 11:06:31;;;;;;;6.97;2.15;;;6.60;99.90;;;;;;6210703;23;20042;-88
2020/12/27 11:08:59;;;;;;;6.13;1.65;;;;;;;;;;6250796;23;20020;-89
2020/12/27 11:11:34;;;;;;;3.30;2.20;;;;;;;;;;6178666;23;20016;-89
2020/12/27 11:14:07;;;;;;;9.80;2.10;;;;;;;;;;6226932;23;20030;-90
2020/12/27 11:16:37;;;;;;;8.15;2.22;;;;;;;;;;6228298;23;20348;-90
2020/12/27 11:19:11;;;;;;;11.80;2.45;;;;;;;;;;6200518;23;20024;-90
2020/12/27 11:21:48;;;;;;;8.45;2.47;;;;;;;;;;6212051;23;20024;-89
2020/12/27 11:24:18;;;;;;;5.25;2.20;;;;;;;;;;6179378;23;20020;-91
2020/12/27 11:26:49;;;;;;;6.68;1.98;;;;;;;;;;6227650;23;20026;-90
2020/12/27 11:29:29;;;;;;;5.80;2.55;;;;;;;;;;6202979;23;20016;-91
2020/12/27 11:32:13;;;;;;;4.70;2.38;;;;;;;;;;6230369;23;20026;-89
2020/12/27 11:35:22;;;;;;;13.38;2.92;;;6.80;99.90;;;;;;6237025;23;20027;-89
2020/12/27 11:37:57;;;;;;;7.35;2.22;;;;;;;;;;6228317;23;20024;-92
2020/12/27 11:40:46;;;;;;;5.38;1.83;;;;;;;;;;6260919;23;20024;-89
2020/12/27 11:43:32;;;;;;;3.83;2.38;;;;;;;;;;6261554;22;20341;-89
2020/12/27 11:46:06;;;;;;;6.22;2.08;;;;;;;;;;6229800;23;20026;-89
2020/12/27 11:48:35;;;;;;;7.53;3.30;;;;;;;;;;6199824;23;20030;-89
2020/12/27 11:51:06;;;;;;;5.40;1.98;;;;;;;;;;6198236;23;20016;-88
2020/12/27 11:53:55;;;;;;;6.03;3.05;;;;;;;;;;6224713;23;20016;-88
2020/12/27 11:56:33;;;;;;;30.52;4.63;;;;;;;;;;6230626;23;20016;-90
2020/12/27 11:59:44;;;;;;;9.68;2.38;;;;;;;;;;6208249;23;20004;-89
2020/12/27 12:02:30;;;;;;;11.82;2.90;;;;;;;;;;6239697;22;20012;-89
2020/12/27 12:05:14;;;;;;;4.90;2.47;;;;;;;;;;6191168;23;20004;-90
2020/12/27 12:08:00;;;;;;;4.15;1.80;;;;;;;;;;6237899;23;20335;-91
2020/12/27 12:10:36;;;;;;;2.50;1.60;;;;;;;;;;6187726;23;20020;-90
2020/12/27 12:13:17;;;;;;;7.72;2.08;;;;;;;;;;6263581;23;20023;-89
2020/12/27 12:15:45;;;;;;;9.10;2.50;;;;;;;;;;6236918;23;20016;-90
2020/12/27 12:18:20;;;;;;;4.38;1.50;;;;;;;;;;6255954;23;20020;-88
2020/12/27 12:20:51;;;;;;;2.65;1.58;;;;;;;;;;6241074;22;20020;-90
2020/12/27 12:23:29;;;;;;;6.00;3.00;;;;;;;;;;6265389;22;20030;-92
2020/12/27 12:26:08;;;;;;;22.40;3.47;;;;;;;;;;6215934;23;20020;-88
2020/12/27 12:28:39;;;;;;;10.45;1.88;;;;;;;;;;6239816;23;20012;-89
2020/12/27 12:31:50;;;;;;;5.80;2.03;;;7.80;99.90;;;;;;6268726;23;20034;-91
2020/12/27 12:34:26;;;;;;;4.78;1.95;;;;;;;;;;6190480;23;20016;-92
2020/12/27 12:37:46;;;;;;;9.15;2.53;;;;;;;;;;6278549;22;20015;-92
2020/12/27 12:41:17;;;;;;;3.47;1.90;;;;;;;;;;6278754;23;20023;-92
2020/12/27 12:43:49;;;;;;;6.45;1.60;;;;;;;;;;6291105;22;20031;-91
2020/12/27 12:46:29;;;;;;;5.85;2.42;;;;;;;;;;6215733;23;20020;-90
2020/12/27 12:49:06;;;;;;;9.90;2.53;;;7.90;99.90;;;;;;6235839;23;20035;-87
2020/12/27 12:51:38;;;;;;;7.45;1.88;;;;;;;;;;6258437;23;20024;-91
2020/12/27 12:54:20;;;;;;;6.45;2.50;;;;;;;;;;6236653;23;20336;-89
2020/12/27 12:56:51;;;;;;;11.40;2.47;;;;;;;;;;6185799;23;20034;-91
2020/12/27 13:00:23;;;;;;;8.75;3.88;;;;;;;;;;6239193;23;20018;-89
2020/12/27 13:07:15;;;;;;;4.93;2.30;;;;;;;;;;6330801;22;20102;-90
2020/12/27 13:09:54;;;;;;;5.55;1.80;;;;;;;;;;6303442;22;20019;-92
2020/12/27 13:12:54;;;;;;;5.47;2.35;;;;;;;;;;6282015;22;20004;-92
2020/12/27 13:16:01;;;;;;;5.75;3.00;;;;;;;;;;6283279;22;20034;-93
2020/12/27 13:19:56;;;;;;;5.18;2.15;;;;;;;;;;6308570;22;20023;-92
2020/12/27 13:22:35;;;;;;;11.25;3.22;;;;;;;;;;6241406;22;20019;-92
2020/12/27 13:25:33;;;;;;;10.65;3.42;;;;;;;;;;6243137;22;20022;-92
2020/12/27 13:28:12;;;;;;;8.82;3.40;;;;;;;;;;6284180;22;20024;-91
2020/12/27 13:31:15;;;;;;;5.93;1.90;;;;;;;;;;6271805;22;20015;-91
2020/12/27 13:46:18;;;;;;;7.90;2.78;;;7.80;99.90;;;;;;6266300;23;20016;-92
2020/12/27 13:50:52;;;;;;;21.27;3.93;;;7.70;99.90;;;;;;6141414;23;20024;-92
2020/12/27 13:54:11;;;;;;;5.03;2.33;;;;;;;;;;6104060;23;20022;-92
2020/12/27 13:57:23;;;;;;;9.80;2.40;;;;;;;;;;6208402;22;20024;-91
2020/12/27 14:04:10;;;;;;;9.52;2.17;;;;;;;;;;6301264;22;20007;-90
2020/12/27 14:06:54;;;;;;;12.13;3.22;;;;;;;;;;6281198;22;20063;-92
2020/12/27 14:09:32;;;;;;;2.85;2.10;;;;;;;;;;6254346;22;20021;-93
2020/12/27 14:12:49;;;;;;;7.35;2.60;;;;;;;;;;6260106;22;20473;-91
2020/12/27 14:16:42;;;;;;;11.00;2.17;;;;;;;;;;6319481;22;20012;-91
2020/12/27 14:19:28;;;;;;;5.25;2.05;;;;;;;;;;6255130;22;20137;-91
2020/12/27 14:22:10;;;;;;;6.85;2.70;;;;;;;;;;6216827;23;20014;-92
2020/12/27 14:25:28;;;;;;;4.45;2.00;;;;;;;;;;6263714;22;20014;-90
2020/12/27 14:28:50;;;;;;;15.30;5.97;;;;;;;;;;6257995;23;20021;-93
2020/12/27 14:32:04;;;;;;;4.82;2.20;;;;;;;;;;6234152;22;20016;-91
2020/12/27 14:34:37;;;;;;;6.28;2.22;;;;;;;;;;6157487;23;20016;-91
2020/12/27 14:37:23;;;;;;;7.25;2.80;;;;;;;;;;6185363;23;20037;-90
2020/12/27 14:40:08;;;;;;;8.85;3.38;;;;;;;;;;6231375;23;20028;-92
2020/12/27 14:43:20;;;;;;;7.50;2.63;;;6.60;99.90;;;;;;6183016;23;20024;-92
2020/12/27 14:45:55;;;;;;;7.15;3.00;;;;;;;;;;6181384;23;20024;-92
2020/12/27 14:49:27;;;;;;;9.43;3.67;;;;;;;;;;6246474;23;20329;-91
2020/12/27 14:52:36;;;;;;;13.45;5.30;;;;;;;;;;6206450;23;20011;-91
2020/12/27 14:55:45;;;;;;;13.30;2.90;;;;;;;;;;6188516;23;20016;-91
2020/12/27 15:01:58;;;;;;;13.13;4.05;;;;;;;;;;6325907;22;20003;-91
2020/12/27 15:05:07;;;;;;;12.68;3.00;;;;;;;;;;6319471;22;20011;-88
2020/12/27 15:12:39;;;;;;;4.63;3.85;;;;;;;;;;6297638;22;20025;-90
2020/12/27 15:16:13;;;;;;;12.38;3.63;;;;;;;;;;6335310;22;20019;-90
2020/12/27 15:19:45;;;;;;;9.05;2.97;;;6.40;99.90;;;;;;6272996;22;20025;-91
2020/12/27 15:22:59;;;;;;;10.93;2.90;;;6.30;99.90;;;;;;6301660;22;20027;-89
2020/12/27 15:25:35;;;;;;;10.13;2.92;;;;;;;;;;6282812;22;20423;-90
2020/12/27 15:31:50;;;;;;;11.05;3.00;;;;;;;;;;6291187;22;20023;31
2020/12/27 15:35:09;;;;;;;18.77;4.70;;;;;;;;;;6153204;23;20017;-88
2020/12/27 15:42:48;;;;;;;7.78;3.20;;;;;;;;;;6085888;23;20019;-91
2020/12/27 15:45:38;;;;;;;11.75;4.85;;;;;;;;;;6058279;23;20029;-92
2020/12/27 15:48:35;;;;;;;7.70;3.92;;;;;;;;;;6056359;23;20076;-91
2020/12/27 15:52:25;;;;;;;10.02;2.90;;;;;;;;;;6094205;23;20027;-91
2020/12/27 15:55:13;;;;;;;11.25;4.00;;;;;;;;;;6057256;23;20033;-90
2020/12/27 15:57:52;;;;;;;5.28;3.67;;;;;;;;;;6080797;23;20023;-91
2020/12/27 16:00:37;;;;;;;6.72;3.60;;;;;;;;;;6058439;23;20049;-89
2020/12/27 16:03:21;;;;;;;10.73;3.50;;;;;;;;;;6058470;23;20025;-90
2020/12/27 16:06:19;;;;;;;15.68;4.20;;;;;;;;;;6064795;23;20019;-91
2020/12/27 16:09:37;;;;;;;10.10;3.42;;;;;;;;;;6045607;23;20033;-92
2020/12/27 16:12:28;;;;;;;7.47;2.60;;;;;;;;;;6062879;23;20023;-91
2020/12/27 16:18:40;;;;;;;8.88;3.28;;;;;;;;;;6107489;23;20009;-88
2020/12/27 16:22:22;;;;;;;9.68;3.40;;;5.20;99.90;;;;;;6183211;23;20017;-92
2020/12/27 16:25:21;;;;;;;15.02;4.57;;;;;;;;;;6185044;23;20017;-92
2020/12/27 16:28:14;;;;;;;23.48;3.53;;;;;;;;;;6196657;23;20017;-92
2020/12/27 16:31:46;;;;;;;;;;;;;;;;;;;;;
2020/12/27 16:35:04;;;;;;;6.53;2.80;;;;;;;;;;6174942;23;20022;-91
2020/12/27 16:39:38;;;;;;;;;;;;;;;;;;;;;
2020/12/27 16:42:51;;;;;;;23.08;5.35;;;;;;;;;;6125051;23;20020;-90
2020/12/27 16:45:54;;;;;;;19.58;5.50;;;;;;;;;;6141368;23;20022;-91
2020/12/27 16:48:24;;;;;;;19.80;4.00;;;;;;;;;;6214189;22;20020;-89